createdAt,value
2023-04-05T00:01:20.071Z,1.77
2023-04-05T00:03:48.530Z,3.92
2023-04-05T00:06:17.451Z,5.57
2023-04-05T00:08:49.912Z,0.88
2023-04-05T00:11:18.928Z,1.75
2023-04-05T00:13:48.420Z,3.70
2023-04-05T00:16:16.645Z,1.35
2023-04-05T00:18:49.983Z,6.53
2023-04-05T00:21:18.554Z,1.17
2023-04-05T00:23:46.921Z,1.98
2023-04-05T00:26:14.913Z,1.85
2023-04-05T00:28:44.557Z,3.72
2023-04-05T00:31:14.236Z,6.87
2023-04-05T00:33:42.250Z,1.05
2023-04-05T00:36:11.789Z,2.70
2023-04-05T00:38:40.635Z,1.17
2023-04-05T00:41:08.968Z,1.20
2023-04-05T00:43:37.176Z,0.90
2023-04-05T00:46:06.515Z,0.95
2023-04-05T00:48:39.449Z,1.55
2023-04-05T00:51:11.589Z,1.83
2023-04-05T00:53:40.832Z,1.92
2023-04-05T00:56:10.212Z,1.90
2023-04-05T00:58:38.297Z,1.55
2023-04-05T01:01:14.592Z,2.15
2023-04-05T01:03:48.091Z,1.85
2023-04-05T01:06:23.370Z,3.70
2023-04-05T01:09:01.231Z,1.80
2023-04-05T01:11:32.277Z,0.90
2023-04-05T01:14:00.777Z,0.88
2023-04-05T01:16:29.574Z,2.05
2023-04-05T01:18:59.286Z,1.10
2023-04-05T01:21:51.731Z,1.33
2023-04-05T01:24:35.195Z,2.25
2023-04-05T01:27:08.001Z,1.67
2023-04-05T01:29:57.028Z,2.40
2023-04-05T01:32:47.243Z,1.83
2023-04-05T01:35:23.596Z,6.05
2023-04-05T01:37:58.824Z,2.00
2023-04-05T01:40:27.119Z,1.77
2023-04-05T01:42:57.649Z,2.92
2023-04-05T01:45:26.983Z,1.92
2023-04-05T01:47:55.286Z,3.80
2023-04-05T01:50:23.776Z,2.37
2023-04-05T01:52:52.173Z,2.95
2023-04-05T01:55:20.942Z,2.65
2023-04-05T01:57:49.025Z,1.30
2023-04-05T02:00:18.071Z,1.80
2023-04-05T02:02:48.050Z,2.08
2023-04-05T02:05:16.770Z,1.48
2023-04-05T02:07:44.983Z,3.12
2023-04-05T02:10:13.395Z,2.30
2023-04-05T02:12:41.845Z,5.72
2023-04-05T02:15:12.423Z,3.60
2023-04-05T02:17:40.498Z,2.40
2023-04-05T02:20:12.490Z,2.80
2023-04-05T02:22:41.035Z,3.33
2023-04-05T02:25:09.856Z,4.60
2023-04-05T02:27:39.663Z,3.55
2023-04-05T02:30:09.470Z,2.75
2023-04-05T02:32:37.740Z,2.80
2023-04-05T02:35:06.596Z,2.12
2023-04-05T02:37:37.256Z,1.27
2023-04-05T02:40:08.313Z,3.08
2023-04-05T02:42:39.275Z,1.60
2023-04-05T02:45:08.487Z,3.10
2023-04-05T02:47:37.046Z,2.10
2023-04-05T02:50:05.777Z,2.80
2023-04-05T02:52:34.279Z,1.50
2023-04-05T02:55:04.867Z,1.73
2023-04-05T02:57:33.379Z,3.42
2023-04-05T03:00:01.926Z,4.00
2023-04-05T03:02:31.458Z,1.65
2023-04-05T03:05:02.395Z,1.25
2023-04-05T03:07:33.294Z,1.05
2023-04-05T03:10:02.673Z,1.73
2023-04-05T03:12:32.722Z,4.45
2023-04-05T03:15:01.358Z,4.87
2023-04-05T03:17:34.175Z,3.45
2023-04-05T03:20:08.992Z,2.83
2023-04-05T03:22:37.859Z,3.80
2023-04-05T03:25:07.282Z,2.55
2023-04-05T03:27:38.520Z,2.47
2023-04-05T03:30:08.476Z,2.90
2023-04-05T03:32:37.136Z,4.00
2023-04-05T03:35:06.342Z,4.28
2023-04-05T03:37:35.350Z,4.53
2023-04-05T03:40:06.596Z,3.60
2023-04-05T03:42:37.145Z,3.67
2023-04-05T03:45:06.619Z,3.60
2023-04-05T03:47:35.446Z,1.70
2023-04-05T03:50:04.268Z,1.65
2023-04-05T03:52:32.466Z,1.23
2023-04-05T03:55:01.185Z,2.20
2023-04-05T03:57:31.260Z,5.40
2023-04-05T04:00:01.515Z,3.75
2023-04-05T04:02:31.544Z,2.33
2023-04-05T04:05:04.508Z,1.30
2023-04-05T04:07:33.576Z,3.12
2023-04-05T04:10:01.880Z,3.00
2023-04-05T04:12:31.966Z,5.20
2023-04-05T04:15:02.069Z,3.90
2023-04-05T04:17:32.755Z,2.90
2023-04-05T04:20:01.155Z,1.83
2023-04-05T04:22:33.338Z,3.28
2023-04-05T04:25:05.083Z,2.12
2023-04-05T04:27:36.081Z,4.57
2023-04-05T04:30:10.380Z,3.33
2023-04-05T04:32:52.860Z,5.25
2023-04-05T04:35:25.375Z,2.58
2023-04-05T04:37:57.971Z,2.53
2023-04-05T04:40:32.523Z,3.42
2023-04-05T04:43:00.681Z,8.38
2023-04-05T04:45:34.784Z,3.65
2023-04-05T04:48:06.221Z,5.15
2023-04-05T04:50:36.117Z,3.90
2023-04-05T04:53:04.273Z,4.18
2023-04-05T04:55:33.636Z,4.72
2023-04-05T04:58:01.960Z,2.70
2023-04-05T05:00:31.552Z,3.50
2023-04-05T05:02:59.749Z,3.85
2023-04-05T05:05:28.104Z,2.42
2023-04-05T05:07:56.278Z,3.05
2023-04-05T05:10:24.317Z,2.67
2023-04-05T05:12:53.885Z,5.55
2023-04-05T05:15:22.040Z,2.50
2023-04-05T05:17:54.084Z,7.82
2023-04-05T05:20:23.154Z,4.97
2023-04-05T05:22:51.222Z,5.97
2023-04-05T05:25:20.124Z,3.67
2023-04-05T05:27:50.064Z,5.18
2023-04-05T05:30:18.206Z,4.30
2023-04-05T05:32:46.552Z,4.28
2023-04-05T05:35:16.188Z,8.23
2023-04-05T05:37:44.325Z,3.08
2023-04-05T05:40:13.491Z,2.90
2023-04-05T05:42:41.707Z,4.78
2023-04-05T05:45:11.157Z,3.28
2023-04-05T05:47:40.410Z,3.72
2023-04-05T05:50:10.206Z,3.00
2023-04-05T05:52:39.630Z,3.58
2023-04-05T05:55:09.408Z,3.37
2023-04-05T05:57:38.871Z,5.90
2023-04-05T06:00:10.557Z,4.20
2023-04-05T06:02:39.649Z,4.68
2023-04-05T06:05:08.853Z,4.70
2023-04-05T06:07:39.064Z,4.30
2023-04-05T06:10:09.399Z,3.37
2023-04-05T06:12:37.385Z,2.97
2023-04-05T06:15:06.498Z,5.05
2023-04-05T06:17:41.791Z,3.37
2023-04-05T06:20:11.652Z,4.47
2023-04-05T06:22:42.080Z,4.47
2023-04-05T06:25:12.885Z,2.87
2023-04-05T06:27:41.209Z,3.75
2023-04-05T06:30:10.055Z,4.10
2023-04-05T06:32:38.242Z,5.97
2023-04-05T06:35:07.817Z,2.95
2023-04-05T06:37:35.849Z,5.03
2023-04-05T06:40:05.978Z,4.50
2023-04-05T06:42:34.234Z,3.05
2023-04-05T06:45:04.398Z,3.55
2023-04-05T06:47:34.938Z,3.90
2023-04-05T06:50:03.754Z,5.50
2023-04-05T06:52:31.869Z,6.18
2023-04-05T06:54:59.855Z,7.05
2023-04-05T06:57:29.777Z,7.03
2023-04-05T06:59:58.598Z,5.60
2023-04-05T07:02:26.970Z,3.62
2023-04-05T07:05:00.677Z,6.22
2023-04-05T07:07:28.863Z,3.28
2023-04-05T07:09:57.070Z,5.25
2023-04-05T07:12:25.674Z,7.35
2023-04-05T07:14:55.365Z,5.65
2023-04-05T07:17:23.599Z,5.10
2023-04-05T07:19:52.064Z,4.00
2023-04-05T07:22:20.032Z,3.78
2023-04-05T07:24:48.592Z,3.05
2023-04-05T07:27:16.888Z,6.57
2023-04-05T07:29:46.578Z,3.87
2023-04-05T07:32:17.830Z,5.37
2023-04-05T07:34:45.813Z,4.78
2023-04-05T07:37:13.904Z,5.05
2023-04-05T07:39:42.130Z,4.25
2023-04-05T07:42:10.136Z,4.20
2023-04-05T07:44:38.098Z,4.68
2023-04-05T07:47:06.501Z,5.25
2023-04-05T07:49:37.841Z,3.42
2023-04-05T07:52:06.604Z,3.72
2023-04-05T07:54:34.788Z,2.92
2023-04-05T07:57:03.059Z,2.92
2023-04-05T07:59:31.240Z,3.33
2023-04-05T08:02:08.275Z,1.95
2023-04-05T08:04:41.854Z,3.42
2023-04-05T08:07:10.093Z,3.87
2023-04-05T08:09:38.066Z,2.92
2023-04-05T08:12:06.916Z,3.85
2023-04-05T08:14:34.885Z,1.77
2023-04-05T08:17:02.877Z,4.18
2023-04-05T08:19:31.040Z,3.17
2023-04-05T08:22:00.400Z,4.20
2023-04-05T08:24:28.568Z,3.83
2023-04-05T08:26:56.864Z,5.55
2023-04-05T08:29:24.845Z,2.90
2023-04-05T08:31:52.872Z,3.05
2023-04-05T08:34:21.082Z,1.60
2023-04-05T08:36:49.137Z,1.48
2023-04-05T08:39:18.736Z,2.83
2023-04-05T08:41:57.072Z,1.80
2023-04-05T08:44:27.614Z,1.15
2023-04-05T08:46:57.392Z,1.12
2023-04-05T08:49:25.449Z,1.65
2023-04-05T08:51:54.744Z,2.58
2023-04-05T08:54:24.361Z,2.33
2023-04-05T08:56:54.586Z,3.53
2023-04-05T08:59:23.592Z,1.67
2023-04-05T09:01:52.813Z,0.93
2023-04-05T09:04:23.396Z,1.20
2023-04-05T09:06:53.084Z,1.08
2023-04-05T09:09:22.186Z,1.92
2023-04-05T09:11:52.010Z,1.37
2023-04-05T09:14:21.346Z,0.88
2023-04-05T09:16:49.507Z,1.08
2023-04-05T09:19:17.547Z,1.40
2023-04-05T09:22:02.999Z,2.17
2023-04-05T09:24:34.906Z,0.37
2023-04-05T09:27:10.141Z,1.98
2023-04-05T09:29:39.327Z,1.48
2023-04-05T09:32:09.438Z,0.93
2023-04-05T09:34:38.411Z,2.30
2023-04-05T09:37:15.395Z,2.25
2023-04-05T09:39:44.176Z,0.77
2023-04-05T09:42:15.525Z,1.98
2023-04-05T09:44:51.986Z,2.60
2023-04-05T09:47:21.851Z,0.50
2023-04-05T09:49:52.490Z,1.75
2023-04-05T09:52:25.151Z,0.75
2023-04-05T09:54:56.811Z,1.02
2023-04-05T09:57:27.632Z,7.65
2023-04-05T09:59:56.653Z,1.27
2023-04-05T10:02:26.091Z,4.68
2023-04-05T10:04:54.404Z,0.50
2023-04-05T10:07:22.416Z,1.27
2023-04-05T10:09:50.522Z,1.12
2023-04-05T10:12:27.594Z,0.73
2023-04-05T10:14:57.652Z,1.27
2023-04-05T10:17:30.387Z,0.90
2023-04-05T10:20:11.816Z,0.95
2023-04-05T10:22:50.099Z,2.03
2023-04-05T10:25:27.236Z,0.65
2023-04-05T10:28:03.156Z,2.70
2023-04-05T10:30:37.005Z,2.70
2023-04-05T10:33:17.550Z,0.73
2023-04-05T10:36:02.174Z,2.83
2023-04-05T10:38:31.141Z,0.75
2023-04-05T10:41:10.319Z,1.20
2023-04-05T10:43:40.300Z,2.25
2023-04-05T10:46:13.249Z,1.12
2023-04-05T10:48:49.365Z,1.48
2023-04-05T10:51:17.758Z,1.02
2023-04-05T10:53:48.585Z,0.65
2023-04-05T10:56:19.698Z,3.12
2023-04-05T10:58:50.122Z,2.45
2023-04-05T11:01:21.482Z,0.73
2023-04-05T11:03:51.633Z,3.37
2023-04-05T11:06:21.953Z,0.77
2023-04-05T11:08:52.175Z,2.00
2023-04-05T11:11:23.031Z,4.75
2023-04-05T11:13:53.441Z,2.37
2023-04-05T11:16:24.678Z,3.08
2023-04-05T11:18:53.753Z,3.42
2023-04-05T11:21:24.453Z,1.45
2023-04-05T11:24:07.800Z,1.02
2023-04-05T11:26:57.520Z,1.02
2023-04-05T11:29:48.276Z,1.35
2023-04-05T11:32:18.063Z,0.60
2023-04-05T11:34:58.258Z,2.00
2023-04-05T11:38:07.002Z,1.62
2023-04-05T11:40:36.469Z,2.45
2023-04-05T11:43:07.800Z,1.37
2023-04-05T11:45:38.121Z,1.75
2023-04-05T11:48:09.261Z,1.42
2023-04-05T11:50:39.193Z,0.80
2023-04-05T11:53:11.688Z,1.83
2023-04-05T11:55:41.265Z,1.92
2023-04-05T11:58:14.259Z,4.05
2023-04-05T12:00:42.946Z,1.17
2023-04-05T12:03:16.835Z,0.88
2023-04-05T12:05:52.274Z,2.92
2023-04-05T12:08:21.520Z,1.30
2023-04-05T12:10:56.893Z,2.67
2023-04-05T12:13:33.497Z,3.50
2023-04-05T12:16:03.022Z,1.05
2023-04-05T12:18:34.441Z,2.37
2023-04-05T12:21:06.469Z,0.90
2023-04-05T12:23:37.251Z,0.75
2023-04-05T12:26:08.070Z,1.50
2023-04-05T12:28:53.255Z,2.83
2023-04-05T12:31:37.142Z,1.42
2023-04-05T12:34:07.477Z,0.77
2023-04-05T12:36:38.921Z,1.27
2023-04-05T12:39:08.389Z,1.58
2023-04-05T12:41:37.185Z,1.25
2023-04-05T12:44:06.746Z,4.07
2023-04-05T12:46:42.141Z,2.55
2023-04-05T12:49:13.685Z,3.25
2023-04-05T12:51:46.241Z,1.85
2023-04-05T12:54:15.380Z,1.45
2023-04-05T12:56:43.759Z,1.20
2023-04-05T12:59:12.220Z,1.00
2023-04-05T13:01:40.473Z,1.45
2023-04-05T13:04:15.993Z,49.00
2023-04-05T13:06:47.816Z,10.57
2023-04-05T13:09:16.492Z,11.63
2023-04-05T13:11:44.446Z,3.17
2023-04-05T13:14:12.418Z,3.85
2023-04-05T13:16:40.656Z,4.07
2023-04-05T13:19:08.743Z,3.22
2023-04-05T13:21:36.727Z,1.62
2023-04-05T13:24:06.548Z,3.75
2023-04-05T13:26:34.584Z,1.48
2023-04-05T13:29:03.588Z,2.83
2023-04-05T13:31:33.646Z,1.10
2023-04-05T13:34:02.145Z,2.20
2023-04-05T13:36:31.112Z,1.35
2023-04-05T13:38:59.385Z,1.62
2023-04-05T13:41:28.727Z,0.93
2023-04-05T13:43:56.781Z,2.30
2023-04-05T13:46:25.027Z,2.45
2023-04-05T13:48:53.042Z,2.62
2023-04-05T13:51:20.982Z,4.97
2023-04-05T13:53:49.345Z,4.97
2023-04-05T13:56:17.273Z,2.35
2023-04-05T13:58:46.607Z,2.08
2023-04-05T14:01:15.095Z,1.20
2023-04-05T14:03:43.462Z,1.48
2023-04-05T14:06:11.619Z,1.42
2023-04-05T14:08:39.705Z,1.05
2023-04-05T14:11:08.189Z,1.00
2023-04-05T14:13:36.490Z,2.05
2023-04-05T14:16:06.976Z,1.27
2023-04-05T14:18:35.442Z,2.15
2023-04-05T14:21:03.474Z,2.87
2023-04-05T14:23:31.401Z,2.60
2023-04-05T14:26:00.751Z,1.05
2023-04-05T14:28:28.730Z,1.73
2023-04-05T14:30:58.477Z,1.65
2023-04-05T14:33:28.182Z,1.30
2023-04-05T14:35:56.358Z,0.95
2023-04-05T14:38:24.986Z,0.98
2023-04-05T14:40:53.314Z,2.37
2023-04-05T14:43:21.303Z,1.33
2023-04-05T14:45:49.218Z,1.33
2023-04-05T14:48:17.461Z,1.52
2023-04-05T14:50:46.824Z,2.72
2023-04-05T14:53:15.579Z,3.08
2023-04-05T14:55:43.853Z,2.22
2023-04-05T14:58:14.249Z,5.82
2023-04-05T15:00:42.791Z,1.83
2023-04-05T15:03:11.687Z,1.12
2023-04-05T15:05:39.794Z,1.62
2023-04-05T15:08:09.122Z,1.48
2023-04-05T15:10:37.385Z,0.68
2023-04-05T15:13:05.509Z,3.10
2023-04-05T15:15:33.777Z,2.35
2023-04-05T15:18:02.426Z,2.03
2023-04-05T15:20:30.490Z,1.10
2023-04-05T15:22:58.525Z,1.75
2023-04-05T15:25:28.216Z,1.30
2023-04-05T15:28:00.973Z,2.42
2023-04-05T15:30:31.706Z,2.65
2023-04-05T15:32:59.775Z,1.45
2023-04-05T15:35:29.425Z,2.97
2023-04-05T15:37:58.603Z,2.40
2023-04-05T15:40:29.297Z,1.95
2023-04-05T15:42:57.585Z,2.58
2023-04-05T15:45:25.539Z,1.23
2023-04-05T15:47:53.662Z,1.23
2023-04-05T15:50:22.133Z,2.20
2023-04-05T15:52:50.215Z,1.85
2023-04-05T15:55:18.437Z,1.02
2023-04-05T15:57:49.508Z,2.03
2023-04-05T16:00:18.389Z,1.27
2023-04-05T16:02:46.853Z,1.12
2023-04-05T16:05:15.288Z,6.30
2023-04-05T16:07:43.380Z,4.40
2023-04-05T16:10:12.287Z,4.55
2023-04-05T16:12:40.436Z,5.05
2023-04-05T16:15:10.836Z,4.85
2023-04-05T16:17:39.141Z,3.28
2023-04-05T16:20:08.273Z,3.50
2023-04-05T16:22:36.388Z,2.00
2023-04-05T16:25:05.178Z,2.08
2023-04-05T16:27:33.714Z,2.28
2023-04-05T16:30:01.661Z,1.52
2023-04-05T16:32:31.249Z,2.35
2023-04-05T16:34:59.472Z,3.33
2023-04-05T16:37:30.080Z,1.73
2023-04-05T16:39:58.282Z,3.08
2023-04-05T16:42:26.283Z,5.07
2023-04-05T16:44:54.276Z,17.50
2023-04-05T16:47:22.545Z,22.92
2023-04-05T16:49:52.084Z,19.42
2023-04-05T16:52:20.450Z,17.02
2023-04-05T16:54:48.667Z,10.85
2023-04-05T16:57:16.719Z,13.73
2023-04-05T16:59:44.757Z,25.12
2023-04-05T17:02:13.002Z,30.50
2023-04-05T17:04:41.464Z,27.87
2023-04-05T17:07:10.801Z,27.52
2023-04-05T17:09:39.056Z,20.48
2023-04-05T17:12:07.096Z,9.05
2023-04-05T17:14:35.121Z,7.25
2023-04-05T17:17:03.378Z,14.20
2023-04-05T17:19:31.618Z,6.00
2023-04-05T17:21:59.529Z,4.05
2023-04-05T17:24:34.877Z,3.30
2023-04-05T17:27:02.870Z,6.47
2023-04-05T17:29:31.317Z,5.32
2023-04-05T17:31:59.322Z,2.60
2023-04-05T17:34:27.371Z,4.57
2023-04-05T17:36:55.586Z,4.72
2023-04-05T17:39:23.565Z,2.90
2023-04-05T17:41:56.961Z,3.95
2023-04-05T17:44:25.312Z,3.70
2023-04-05T17:47:01.666Z,1.92
2023-04-05T17:49:37.776Z,2.17
2023-04-05T17:52:08.299Z,2.65
2023-04-05T17:54:37.533Z,2.00
2023-04-05T17:57:07.214Z,1.75
2023-04-05T17:59:36.319Z,2.67
2023-04-05T18:02:04.579Z,2.03
2023-04-05T18:04:32.886Z,2.45
2023-04-05T18:07:01.355Z,2.70
2023-04-05T18:09:29.572Z,2.67
2023-04-05T18:11:57.739Z,3.05
2023-04-05T18:14:27.129Z,2.45
2023-04-05T18:16:55.132Z,2.22
2023-04-05T18:19:23.383Z,2.22
2023-04-05T18:21:51.387Z,1.65
2023-04-05T18:24:19.647Z,1.73
2023-04-05T18:26:50.163Z,2.33
2023-04-05T18:29:18.177Z,2.22
2023-04-05T18:31:47.519Z,3.55
2023-04-05T18:34:16.280Z,3.10
2023-04-05T18:36:44.367Z,1.87
2023-04-05T18:39:12.710Z,3.20
2023-04-05T18:41:41.274Z,1.40
2023-04-05T18:44:10.056Z,3.55
2023-04-05T18:46:38.664Z,3.75
2023-04-05T18:49:08.467Z,1.92
2023-04-05T18:51:36.773Z,5.07
2023-04-05T18:54:04.955Z,2.65
2023-04-05T18:56:33.685Z,3.83
2023-04-05T18:59:02.209Z,2.65
2023-04-05T19:01:30.466Z,1.95
2023-04-05T19:04:00.449Z,1.83
2023-04-05T19:06:30.038Z,1.77
2023-04-05T19:08:58.480Z,1.05
2023-04-05T19:11:26.449Z,1.65
2023-04-05T19:13:54.734Z,1.20
2023-04-05T19:16:23.026Z,2.92
2023-04-05T19:18:51.112Z,2.70
2023-04-05T19:21:19.199Z,2.97
2023-04-05T19:23:48.839Z,1.77
2023-04-05T19:26:16.868Z,2.33
2023-04-05T19:28:44.781Z,3.15
2023-04-05T19:31:13.018Z,4.95
2023-04-05T19:33:41.260Z,2.22
2023-04-05T19:36:09.345Z,2.35
2023-04-05T19:38:37.683Z,1.90
2023-04-05T19:41:07.077Z,3.45
2023-04-05T19:43:36.862Z,4.03
2023-04-05T19:46:09.419Z,2.10
2023-04-05T19:48:39.797Z,2.25
2023-04-05T19:51:08.414Z,2.50
2023-04-05T19:53:44.689Z,1.17
2023-04-05T19:56:18.405Z,2.47
2023-04-05T19:58:48.044Z,2.67
2023-04-05T20:01:32.073Z,1.70
2023-04-05T20:04:00.908Z,1.73
2023-04-05T20:06:34.808Z,2.35
2023-04-05T20:09:07.674Z,2.97
2023-04-05T20:11:37.272Z,1.90
2023-04-05T20:14:07.555Z,3.53
2023-04-05T20:16:38.000Z,1.02
2023-04-05T20:19:08.248Z,3.05
2023-04-05T20:21:38.194Z,2.15
2023-04-05T20:24:09.773Z,2.65
2023-04-05T20:26:39.690Z,1.48
2023-04-05T20:29:09.196Z,2.95
2023-04-05T20:31:40.155Z,2.62
2023-04-05T20:34:13.180Z,1.45
2023-04-05T20:36:48.181Z,4.07
2023-04-05T20:39:16.897Z,2.28
2023-04-05T20:41:46.616Z,1.40
2023-04-05T20:44:14.656Z,3.10
2023-04-05T20:46:45.465Z,4.78
2023-04-05T20:49:13.761Z,3.30
2023-04-05T20:51:43.122Z,2.37
2023-04-05T20:54:11.731Z,5.03
2023-04-05T20:56:40.204Z,2.47
2023-04-05T20:59:09.964Z,2.65
2023-04-05T21:01:42.077Z,2.90
2023-04-05T21:04:10.766Z,2.03
2023-04-05T21:06:39.817Z,2.20
2023-04-05T21:09:08.137Z,3.17
2023-04-05T21:11:36.487Z,2.87
2023-04-05T21:14:04.757Z,4.40
2023-04-05T21:16:34.243Z,2.60
2023-04-05T21:19:02.570Z,2.53
2023-04-05T21:21:31.247Z,2.83
2023-04-05T21:23:59.411Z,2.47
2023-04-05T21:26:27.517Z,2.30
2023-04-05T21:28:55.915Z,2.03
2023-04-05T21:31:23.954Z,1.92
2023-04-05T21:33:54.012Z,3.37
2023-04-05T21:36:22.307Z,3.35
2023-04-05T21:38:51.369Z,1.98
2023-04-05T21:41:19.411Z,4.25
2023-04-05T21:43:47.693Z,2.30
2023-04-05T21:46:15.701Z,3.62
2023-04-05T21:48:43.853Z,2.08
2023-04-05T21:51:13.389Z,2.35
2023-04-05T21:53:41.549Z,2.45
2023-04-05T21:56:09.619Z,3.87
2023-04-05T21:58:37.971Z,3.45
2023-04-05T22:01:06.268Z,4.70
2023-04-05T22:03:34.594Z,2.17
2023-04-05T22:06:02.919Z,2.22
2023-04-05T22:08:34.175Z,5.43
2023-04-05T22:11:02.638Z,3.42
2023-04-05T22:13:30.647Z,3.87
2023-04-05T22:15:58.758Z,3.20
2023-04-05T22:18:28.968Z,3.28
2023-04-05T22:20:57.138Z,2.58
2023-04-05T22:23:25.145Z,3.00
2023-04-05T22:25:54.822Z,3.03
2023-04-05T22:28:23.010Z,5.25
2023-04-05T22:30:51.521Z,3.75
2023-04-05T22:33:19.671Z,6.82
2023-04-05T22:35:47.695Z,5.55
2023-04-05T22:38:16.032Z,4.00
2023-04-05T22:40:45.318Z,8.85
2023-04-05T22:43:14.695Z,3.25
2023-04-05T22:45:42.728Z,3.62
2023-04-05T22:48:11.574Z,4.82
2023-04-05T22:50:39.577Z,4.87
2023-04-05T22:53:07.595Z,4.12
2023-04-05T22:55:37.403Z,4.95
2023-04-05T22:58:05.367Z,3.30
2023-04-05T23:00:35.019Z,3.10
2023-04-05T23:03:03.371Z,2.62
2023-04-05T23:05:31.867Z,4.32
2023-04-05T23:07:59.883Z,2.40
2023-04-05T23:10:28.253Z,3.33
2023-04-05T23:12:56.326Z,2.95
2023-04-05T23:15:25.967Z,2.85
2023-04-05T23:17:58.172Z,3.37
2023-04-05T23:20:26.683Z,5.53
2023-04-05T23:22:55.469Z,2.60
2023-04-05T23:25:24.564Z,1.85
2023-04-05T23:27:53.788Z,2.65
2023-04-05T23:30:22.469Z,5.72
2023-04-05T23:32:50.963Z,3.95
2023-04-05T23:35:21.240Z,2.62
2023-04-05T23:37:49.993Z,4.55
2023-04-05T23:40:18.195Z,3.17
2023-04-05T23:42:46.272Z,5.07
2023-04-05T23:45:14.918Z,3.33
2023-04-05T23:47:43.008Z,2.75
2023-04-05T23:50:11.476Z,3.17
2023-04-05T23:52:41.330Z,2.08
2023-04-05T23:55:10.058Z,5.15
2023-04-05T23:57:38.027Z,2.90
